Time;durP1;ratioP1;P1;durP2;ratioP2;P2;SDS_P1;SDS_P2;PMS_P1;PMS_P2;Temp;Humidity;BMP_temperature;BMP_pressure;BME280_temperature;BME280_humidity;BME280_pressure;Samples;Min_cycle;Max_cycle;Signal;HPM_P1;HPM_P2
2022/02/18 00:00:26;;;;;;;16.88;1.70;;;;;;;8.90;46.11;100184.25;4988843;28;98798;-75
2022/02/18 00:02:55;;;;;;;13.50;1.33;;;;;;;8.92;45.97;100180.66;4990506;28;96829;-76
2022/02/18 00:05:23;;;;;;;15.82;2.10;;;;;;;8.90;45.91;100185.09;4985307;28;97032;-76
2022/02/18 00:07:49;;;;;;;12.25;1.38;;;;;;;8.69;46.47;100186.75;4991851;28;99490;-75
2022/02/18 00:10:16;;;;;;;8.45;1.55;;;;;;;8.87;45.56;100195.75;4990136;28;99020;-76
2022/02/18 00:12:46;;;;;;;10.45;1.58;;;;;;;8.91;45.60;100191.22;4990205;28;96942;-76
2022/02/18 00:15:13;;;;;;;14.68;2.45;;;;;;;8.76;45.72;100193.53;4992127;28;96782;-75
2022/02/18 00:17:42;;;;;;;15.43;1.65;;;;;;;8.56;46.38;100192.53;4989458;28;99065;-75
2022/02/18 00:20:11;;;;;;;14.70;2.08;;;;;;;8.82;45.67;100191.56;4995127;28;99408;-75
2022/02/18 00:22:39;;;;;;;10.30;1.70;;;;;;;9.06;45.38;100191.50;4991786;28;96809;-75
2022/02/18 00:25:10;;;;;;;12.07;1.67;;;;;;;9.32;44.87;100206.31;4989848;28;96787;-75
2022/02/18 00:27:37;;;;;;;11.43;1.73;;;;;;;9.37;44.82;100221.97;4991554;28;99037;-75
2022/02/18 00:30:07;;;;;;;10.70;1.88;;;;;;;8.50;46.47;100217.31;4991218;28;99903;-75
2022/02/18 00:32:35;;;;;;;9.32;1.45;;;;;;;9.16;45.11;100218.38;4995751;28;96999;-76
2022/02/18 00:35:02;;;;;;;11.77;1.70;;;;;;;9.12;45.39;100222.06;4987520;28;97392;-76
2022/02/18 00:37:28;;;;;;;11.25;1.90;;;;;;;9.21;44.80;100226.97;4990680;28;98866;-76
2022/02/18 00:39:56;;;;;;;12.85;1.52;;;;;;;8.73;45.85;100219.09;4985873;28;97941;-74
2022/02/18 00:42:23;;;;;;;15.15;2.00;;;;;;;9.24;44.99;100237.41;4984718;28;96781;-75
2022/02/18 00:44:50;;;;;;;9.88;1.60;;;;;;;8.95;45.49;100238.47;4993572;28;96822;-76
2022/02/18 00:47:18;;;;;;;12.30;0.90;;;;;;;8.75;46.30;100222.53;4991376;28;98862;-75
2022/02/18 00:49:45;;;;;;;17.17;1.88;;;;;;;8.82;46.09;100231.09;4989199;28;98168;-74
2022/02/18 00:52:12;;;;;;;8.55;1.42;;;;;;;8.98;46.00;100248.06;4989159;28;96787;-76
2022/02/18 00:54:38;;;;;;;14.48;1.73;;;;;;;9.03;46.04;100244.34;4986712;28;99063;-75
2022/02/18 00:57:05;;;;;;;7.40;1.58;;;;;;;9.41;45.33;100260.47;4989752;28;99476;-75
2022/02/18 00:59:31;;;;;;;19.00;1.70;;;;;;;8.81;46.76;100256.56;4989649;28;97498;-76
2022/02/18 01:01:58;;;;;;;11.13;1.75;;;;;;;8.70;46.35;100245.56;4982812;28;96757;-74
2022/02/18 01:04:26;;;;;;;15.55;2.25;;;;;;;8.76;46.45;100261.16;4986057;28;97226;-74
2022/02/18 01:06:53;;;;;;;9.80;1.40;;;;;;;8.94;46.35;100265.75;4989352;28;100999;-75
2022/02/18 01:09:22;;;;;;;16.15;2.45;;;;;;;9.11;46.26;100262.50;4993672;28;98794;-77
2022/02/18 01:11:49;;;;;;;15.25;1.98;;;;;;;8.98;46.55;100259.47;4993753;28;97205;-75
2022/02/18 01:14:18;;;;;;;11.73;2.00;;;;;;;8.64;47.19;100262.44;4989009;28;97741;-74
2022/02/18 01:16:45;;;;;;;20.55;1.63;;;;;;;8.98;46.90;100272.66;4993892;28;99373;-74
2022/02/18 01:19:11;;;;;;;9.52;1.63;;;;;;;8.92;46.57;100275.50;4995051;28;99350;-75
2022/02/18 01:21:47;;;;;;;12.27;1.33;;;;;;;8.84;46.86;100274.06;5004660;28;96778;-76
2022/02/18 01:24:13;;;;;;;15.30;2.28;;;;;;;8.96;46.61;100277.09;5003025;28;97636;-75
2022/02/18 01:26:40;;;;;;;12.82;1.40;;;;;;;8.82;46.89;100278.50;4985952;28;97661;-77
2022/02/18 01:29:07;;;;;;;12.35;1.48;;;;;;;8.78;46.58;100283.91;4990083;28;98713;-76
2022/02/18 01:31:33;;;;;;;10.18;1.45;;;;;;;8.76;46.93;100282.22;4985913;28;96894;-75
2022/02/18 01:34:07;;;;;;;9.80;2.28;;;;;;;8.93;46.45;100282.47;4990683;28;96778;-75
2022/02/18 01:36:33;;;;;;;17.20;1.92;;;;;;;9.04;45.93;100287.38;4985168;28;98058;-76
2022/02/18 01:39:01;;;;;;;11.80;1.60;;;;;;;9.35;45.44;100290.59;4990201;28;98921;-76
2022/02/18 01:41:34;;;;;;;16.50;2.28;;;;;;;9.10;45.91;100285.38;4984888;28;97702;-78
2022/02/18 01:44:03;;;;;;;9.95;1.45;;;;;;;8.52;47.06;100293.63;4988091;28;97449;-75
2022/02/18 01:46:32;;;;;;;23.77;2.10;;;;;;;8.64;46.88;100285.28;4990133;28;99393;-75
2022/02/18 01:48:59;;;;;;;15.13;1.58;;;;;;;8.31;47.84;100289.94;4988638;28;97819;-75
2022/02/18 01:51:28;;;;;;;11.25;1.50;;;;;;;8.85;46.39;100302.97;4992466;28;96947;-75
2022/02/18 01:53:55;;;;;;;11.02;1.67;;;;;;;9.11;45.54;100302.91;4989329;28;98660;-75
2022/02/18 01:56:23;;;;;;;13.05;1.58;;;;;;;8.77;46.24;100307.66;4986466;28;99022;-75
2022/02/18 01:58:50;;;;;;;12.23;1.48;;;;;;;9.15;45.25;100304.50;4991979;28;99142;-74
2022/02/18 02:01:16;;;;;;;14.75;2.33;;;;;;;9.39;44.88;100293.94;4989845;28;97124;-74
2022/02/18 02:03:43;;;;;;;10.38;1.92;;;;;;;8.82;45.95;100292.53;4988001;28;96841;-74
2022/02/18 02:06:12;;;;;;;10.95;1.17;;;;;;;9.23;44.96;100319.19;5010192;22;99214;-69
2022/02/18 02:08:39;;;;;;;12.82;1.98;;;;;;;8.83;45.52;100306.56;5014963;28;102078;-70
2022/02/18 02:11:08;;;;;;;12.07;1.60;;;;;;;9.07;45.08;100318.88;5008636;28;96863;-70
2022/02/18 02:13:38;;;;;;;15.38;2.00;;;;;;;9.40;44.50;100322.03;5004607;28;97593;-70
2022/02/18 02:16:05;;;;;;;11.98;1.65;;;;;;;9.24;44.85;100321.78;4998094;28;100271;-69
2022/02/18 02:18:35;;;;;;;9.93;1.73;;;;;;;9.47;44.44;100327.03;4990053;28;98846;-70
2022/02/18 02:21:08;;;;;;;9.55;1.67;;;;;;;9.33;44.92;100323.19;4989623;28;96736;-71
2022/02/18 02:23:37;;;;;;;13.38;1.25;;;;;;;9.55;44.21;100324.97;4991939;28;97826;-71
2022/02/18 02:26:08;;;;;;;17.13;1.98;;;;;;;9.45;44.66;100325.41;4984324;28;99385;-70
2022/02/18 02:28:35;;;;;;;12.82;1.40;;;;;;;9.64;44.22;100333.47;4993539;28;100145;-69
2022/02/18 02:31:01;;;;;;;12.40;2.05;;;;;;;8.86;46.05;100319.66;4982416;28;96797;-69
2022/02/18 02:33:28;;;;;;;12.60;2.33;;;;;;;8.86;45.60;100320.50;4987199;28;97047;-69
2022/02/18 02:35:57;;;;;;;12.10;1.52;;;;;;;9.34;45.40;100328.41;4993838;28;98163;-69
2022/02/18 02:38:23;;;;;;;8.48;1.38;;;;;;;9.18;45.51;100329.91;4991205;28;97869;-70
2022/02/18 02:40:51;;;;;;;20.58;1.65;;;;;;;9.03;45.73;100339.22;4992697;28;98647;-69
2022/02/18 02:43:18;;;;;;;13.23;1.48;;;;;;;8.83;46.68;100341.69;4988973;28;96868;-71
2022/02/18 02:45:44;;;;;;;18.35;2.05;;;;;;;9.17;46.06;100344.88;4992335;28;99151;-71
2022/02/18 02:48:11;;;;;;;10.68;1.25;;;;;;;9.52;44.97;100338.25;4991401;28;98859;-70
2022/02/18 02:50:37;;;;;;;14.18;2.10;;;;;;;9.54;45.46;100332.94;4995630;28;96762;-70
2022/02/18 02:53:04;;;;;;;10.60;1.40;;;;;;;8.78;46.56;100328.69;4988080;28;96820;-71
2022/02/18 02:55:30;;;;;;;12.07;1.70;;;;;;;9.04;46.32;100330.41;4986514;28;97921;-70
2022/02/18 02:57:58;;;;;;;8.95;1.35;;;;;;;9.01;46.42;100335.75;4991664;28;99287;-70
2022/02/18 03:00:24;;;;;;;17.67;2.22;;;;;;;8.67;47.21;100343.13;4986972;28;96749;-70
2022/02/18 03:02:51;;;;;;;9.20;1.65;;;;;;;8.67;47.17;100351.88;4989839;28;98442;-71
2022/02/18 03:05:17;;;;;;;13.63;1.83;;;;;;;8.51;48.01;100336.66;4988278;28;98914;-69
2022/02/18 03:07:44;;;;;;;14.88;1.55;;;;;;;8.67;47.51;100343.13;4989221;28;99761;-69
2022/02/18 03:10:11;;;;;;;12.30;1.70;;;;;;;9.02;46.79;100336.63;4991058;28;96784;-71
2022/02/18 03:12:40;;;;;;;18.60;1.52;;;;;;;8.98;46.78;100330.63;4982703;28;97171;-71
2022/02/18 03:15:08;;;;;;;8.35;1.50;;;;;;;9.02;46.47;100334.00;4985323;28;98987;-71
2022/02/18 03:17:35;;;;;;;11.25;2.08;;;;;;;8.91;47.21;100331.75;4990963;28;99193;-70
2022/02/18 03:20:02;;;;;;;12.35;1.58;;;;;;;8.61;47.54;100333.66;4992211;28;96793;-71
2022/02/18 03:22:28;;;;;;;12.73;1.83;;;;;;;8.74;47.39;100326.19;4991116;28;96846;-70
2022/02/18 03:24:55;;;;;;;10.07;1.98;;;;;;;8.58;47.68;100336.41;4983133;28;99513;-70
2022/02/18 03:27:22;;;;;;;11.63;1.60;;;;;;;8.78;47.66;100333.94;4992370;28;98800;-69
2022/02/18 03:29:49;;;;;;;9.10;1.40;;;;;;;8.82;47.07;100339.09;4985505;28;96898;-69
2022/02/18 03:32:17;;;;;;;11.77;1.33;;;;;;;9.26;46.74;100355.97;4986795;28;96834;-69
2022/02/18 03:34:43;;;;;;;14.27;1.55;;;;;;;9.52;45.91;100363.78;4993313;28;99513;-69
2022/02/18 03:37:10;;;;;;;13.45;1.88;;;;;;;8.88;47.11;100366.09;4994104;28;98884;-69
2022/02/18 03:39:37;;;;;;;12.10;1.65;;;;;;;8.77;47.45;100368.25;4983888;28;96767;-70
2022/02/18 03:42:04;;;;;;;12.05;2.00;;;;;;;8.96;47.09;100368.47;4992961;28;97547;-70
2022/02/18 03:44:31;;;;;;;12.50;1.63;;;;;;;9.01;47.21;100371.78;4989153;28;99662;-70
2022/02/18 03:47:00;;;;;;;9.80;1.48;;;;;;;9.08;46.97;100368.03;4991058;28;98877;-70
2022/02/18 03:49:28;;;;;;;16.77;2.67;;;;;;;9.08;47.26;100370.66;4981970;28;97931;-71
2022/02/18 03:51:54;;;;;;;18.30;2.00;;;;;;;9.14;46.89;100360.78;4991826;28;96920;-69
2022/02/18 03:54:21;;;;;;;10.25;1.63;;;;;;;9.23;46.99;100379.81;4990689;28;99394;-70
2022/02/18 03:56:48;;;;;;;11.20;1.58;;;;;;;9.20;46.79;100373.72;5001976;28;98997;-70
2022/02/18 03:59:14;;;;;;;11.82;1.77;;;;;;;8.91;47.53;100379.19;4986992;28;96898;-70
2022/02/18 04:01:41;;;;;;;12.63;2.17;;;;;;;9.22;47.03;100386.00;4990391;28;98234;-69
2022/02/18 04:04:07;;;;;;;11.80;1.40;;;;;;;9.44;46.42;100387.81;4983288;28;99767;-70
2022/02/18 04:06:35;;;;;;;15.70;1.67;;;;;;;9.53;46.08;100392.75;4998122;28;100426;-68
2022/02/18 04:09:05;;;;;;;10.57;1.52;;;;;;;9.58;46.30;100389.97;4989989;28;96808;-70
2022/02/18 04:11:31;;;;;;;13.90;1.73;;;;;;;9.29;46.51;100384.88;4995406;28;96868;-69
2022/02/18 04:13:57;;;;;;;11.77;1.55;;;;;;;9.12;47.32;100388.94;4990798;28;99065;-70
2022/02/18 04:16:24;;;;;;;12.20;1.50;;;;;;;9.07;47.83;100403.22;4993044;28;99038;-70
2022/02/18 04:18:56;;;;;;;16.08;1.67;;;;;;;9.14;47.18;100397.69;4980435;28;96957;-69
2022/02/18 04:21:23;;;;;;;13.98;1.65;;;;;;;9.19;47.33;100400.13;4993498;28;98049;-70
2022/02/18 04:23:51;;;;;;;13.73;1.92;;;;;;;9.09;47.73;100402.25;4995268;28;98877;-70
2022/02/18 04:26:18;;;;;;;12.75;1.33;;;;;;;8.72;48.52;100400.03;4986857;28;99272;-70
2022/02/18 04:28:45;;;;;;;8.75;1.23;;;;;;;8.98;48.08;100401.78;4983390;28;96928;-70
2022/02/18 04:31:11;;;;;;;12.05;1.70;;;;;;;9.27;47.56;100384.06;4988056;28;96874;-70
2022/02/18 04:33:38;;;;;;;12.85;1.35;;;;;;;8.96;48.30;100394.81;4993386;28;97772;-71
2022/02/18 04:36:05;;;;;;;8.88;1.30;;;;;;;8.99;48.18;100374.47;4991928;28;98975;-70
2022/02/18 04:38:31;;;;;;;12.75;1.83;;;;;;;9.11;48.12;100389.91;4989849;28;97162;-70
2022/02/18 04:41:02;;;;;;;14.82;2.45;;;;;;;9.13;48.06;100387.19;4985496;28;97373;-70
2022/02/18 04:43:28;;;;;;;13.20;2.50;;;;;;;9.13;47.99;100397.72;4990869;28;101821;-70
2022/02/18 04:45:55;;;;;;;11.63;1.73;;;;;;;9.04;48.13;100412.09;4996654;28;97960;-71
2022/02/18 04:48:21;;;;;;;9.02;1.55;;;;;;;9.11;48.26;100410.13;4994121;28;98727;-70
2022/02/18 04:50:49;;;;;;;17.63;2.38;;;;;;;8.76;48.53;100400.75;4995910;28;97034;-70
2022/02/18 04:53:16;;;;;;;14.02;1.52;;;;;;;8.70;49.72;100400.97;4986978;28;100138;-71
2022/02/18 04:55:43;;;;;;;9.00;2.03;;;;;;;8.72;49.38;100401.78;4986070;28;98927;-70
2022/02/18 04:58:13;;;;;;;11.85;1.85;;;;;;;8.93;49.09;100408.94;4991219;28;97169;-70
2022/02/18 05:00:39;;;;;;;10.27;1.80;;;;;;;8.58;50.02;100406.66;4990396;28;97395;-70
2022/02/18 05:03:06;;;;;;;11.65;1.70;;;;;;;8.93;49.04;100411.59;4990107;28;98971;-69
2022/02/18 05:05:36;;;;;;;8.27;1.38;;;;;;;9.17;48.71;100416.03;4992954;28;98869;-70
2022/02/18 05:08:02;;;;;;;18.95;2.33;;;;;;;8.94;49.21;100404.53;4990965;28;96934;-71
2022/02/18 05:10:30;;;;;;;11.82;1.80;;;;;;;8.93;49.60;100405.44;4993091;28;97168;-70
2022/02/18 05:12:57;;;;;;;9.52;1.95;;;;;;;8.86;49.78;100396.91;4988120;28;101334;-70
2022/02/18 05:15:24;;;;;;;11.27;1.48;;;;;;;8.46;50.76;100394.75;4987324;28;98887;-70
2022/02/18 05:17:51;;;;;;;8.23;1.67;;;;;;;8.80;49.78;100403.25;4983896;28;96750;-71
2022/02/18 05:20:18;;;;;;;11.05;1.55;;;;;;;9.21;48.85;100403.59;4984505;28;98277;-69
2022/02/18 05:22:45;;;;;;;12.52;2.38;;;;;;;8.78;50.08;100405.09;4986121;28;98988;-69
2022/02/18 05:25:11;;;;;;;11.90;1.98;;;;;;;8.65;50.57;100408.16;4989486;28;99091;-71
2022/02/18 05:27:38;;;;;;;9.90;2.38;;;;;;;8.78;50.52;100402.44;4990934;28;96818;-72
2022/02/18 05:30:06;;;;;;;11.48;2.00;;;;;;;8.67;50.71;100411.59;4987953;28;96942;-69
2022/02/18 05:32:35;;;;;;;8.45;1.75;;;;;;;8.98;49.96;100411.44;4986783;28;97639;-70
2022/02/18 05:35:01;;;;;;;19.55;1.77;;;;;;;8.67;50.98;100408.97;4980250;28;98924;-69
2022/02/18 05:37:27;;;;;;;11.80;1.60;;;;;;;8.75;50.82;100412.22;4988041;28;97695;-70
2022/02/18 05:39:54;;;;;;;13.57;2.65;;;;;;;8.90;50.45;100414.34;4984975;28;97307;-71
2022/02/18 05:42:20;;;;;;;17.85;2.15;;;;;;;8.58;50.94;100415.41;4992643;28;98899;-69
2022/02/18 05:44:47;;;;;;;15.27;1.80;;;;;;;8.96;50.74;100405.38;4981313;28;98719;-70
2022/02/18 05:47:13;;;;;;;12.85;2.03;;;;;;;8.86;50.31;100401.34;4991290;28;96663;-70
2022/02/18 05:49:41;;;;;;;8.43;1.77;;;;;;;9.03;50.14;100406.88;4984999;28;96778;-70
2022/02/18 05:52:08;;;;;;;9.32;1.55;;;;;;;9.01;50.16;100408.69;4996387;28;99611;-70
2022/02/18 05:54:34;;;;;;;11.18;2.13;;;;;;;8.77;51.04;100408.63;4997763;28;99350;-69
2022/02/18 05:57:01;;;;;;;9.50;1.95;;;;;;;8.94;51.02;100412.44;4990462;28;97913;-71
2022/02/18 05:59:27;;;;;;;13.30;2.05;;;;;;;9.01;50.55;100411.34;4988215;28;97087;-71
2022/02/18 06:01:54;;;;;;;13.43;2.63;;;;;;;9.12;50.40;100410.03;4991172;28;98815;-74
2022/02/18 06:04:20;;;;;;;15.93;2.15;;;;;;;9.14;50.21;100413.50;4984976;28;102822;-74
2022/02/18 06:06:51;;;;;;;11.90;1.90;;;;;;;8.58;51.77;100417.19;4991560;28;96855;-74
2022/02/18 06:09:17;;;;;;;9.45;1.75;;;;;;;8.68;51.50;100414.19;4991846;28;96837;-73
2022/02/18 06:11:44;;;;;;;11.20;2.17;;;;;;;9.11;50.97;100415.38;4990208;28;99121;-74
2022/02/18 06:14:10;;;;;;;11.25;2.42;;;;;;;8.65;51.84;100410.81;4991293;28;98842;-74
2022/02/18 06:16:37;;;;;;;8.68;1.90;;;;;;;8.74;51.84;100405.22;4994890;28;96763;-72
2022/02/18 06:19:07;;;;;;;19.05;2.58;;;;;;;8.86;51.32;100414.50;4988878;28;97602;-69
2022/02/18 06:21:33;;;;;;;13.02;2.55;;;;;;;8.81;51.60;100412.00;4989209;28;98959;-70
2022/02/18 06:24:01;;;;;;;14.57;2.30;;;;;;;8.86;51.68;100420.59;4991361;28;96898;-70
2022/02/18 06:26:27;;;;;;;13.88;2.20;;;;;;;8.68;52.46;100416.81;4981867;28;96899;-71
2022/02/18 06:28:55;;;;;;;10.63;2.10;;;;;;;9.13;51.30;100421.44;4979014;28;97127;-70
2022/02/18 06:31:21;;;;;;;19.63;2.25;;;;;;;9.26;50.44;100424.50;4986380;28;98020;-70
2022/02/18 06:33:48;;;;;;;14.63;2.40;;;;;;;9.03;51.39;100426.19;4982883;28;99859;-71
2022/02/18 06:36:15;;;;;;;12.63;2.42;;;;;;;8.97;51.66;100421.13;4988322;28;97300;-74
2022/02/18 06:38:42;;;;;;;15.48;1.85;;;;;;;9.48;50.15;100414.94;4989210;28;96930;-70
2022/02/18 06:41:14;;;;;;;16.15;2.33;;;;;;;9.21;50.79;100414.13;4985467;28;100187;-70
2022/02/18 06:43:40;;;;;;;18.77;3.20;;;;;;;9.56;49.98;100418.16;4996627;28;99044;-70
2022/02/18 06:46:07;;;;;;;15.55;2.85;;;;;;;9.53;50.20;100413.84;4992295;28;99459;-70
2022/02/18 06:48:37;;;;;;;14.60;2.30;;;;;;;9.45;50.63;100415.06;4989750;28;98941;-70
2022/02/18 06:51:03;;;;;;;12.25;2.33;;;;;;;9.31;50.98;100412.06;4987429;28;98874;-70
2022/02/18 06:53:30;;;;;;;18.60;2.75;;;;;;;9.42;50.75;100413.38;4987015;28;98950;-70
2022/02/18 06:55:56;;;;;;;14.32;2.05;;;;;;;9.57;50.65;100404.06;4983355;28;97924;-70
2022/02/18 06:58:24;;;;;;;15.38;2.80;;;;;;;9.47;50.69;100394.75;4984588;28;98640;-71
2022/02/18 07:00:51;;;;;;;14.15;2.65;;;;;;;9.48;50.89;100401.75;4994904;28;99141;-71
2022/02/18 07:03:19;;;;;;;13.13;2.67;;;;;;;9.67;50.57;100394.88;4990302;28;97969;-69
2022/02/18 07:05:49;;;;;;;13.55;2.85;;;;;;;9.75;50.52;100399.88;4985705;28;96898;-69
2022/02/18 07:08:15;;;;;;;10.68;2.70;;;;;;;9.77;50.37;100398.03;4988680;28;96864;-68
2022/02/18 07:10:42;;;;;;;19.20;2.60;;;;;;;9.89;49.97;100385.25;4984693;28;99374;-72
2022/02/18 07:13:09;;;;;;;13.88;2.88;;;;;;;9.66;50.54;100389.66;4986237;28;99284;-70
2022/02/18 07:15:38;;;;;;;12.75;3.05;;;;;;;9.94;49.95;100383.28;4993833;28;97036;-71
2022/02/18 07:18:05;;;;;;;15.65;3.15;;;;;;;9.89;50.33;100385.25;4989345;28;97872;-70
2022/02/18 07:20:31;;;;;;;14.48;2.60;;;;;;;10.09;49.95;100376.56;4989904;28;99123;-70
2022/02/18 07:23:01;;;;;;;12.00;3.22;;;;;;;10.12;49.79;100373.78;4989690;28;98792;-71
2022/02/18 07:25:28;;;;;;;14.77;4.25;;;;;;;10.14;50.20;100371.06;4993198;28;96914;-70
2022/02/18 07:27:55;;;;;;;10.48;3.67;;;;;;;10.11;50.18;100363.28;4991741;28;97261;-69
2022/02/18 07:30:24;;;;;;;13.23;3.38;;;;;;;10.04;50.25;100364.47;4986461;28;99020;-70
2022/02/18 07:32:52;;;;;;;18.30;3.90;;;;;;;10.34;49.81;100371.19;4988613;28;98085;-69
2022/02/18 07:35:20;;;;;;;19.38;4.95;;;;;;;10.21;50.12;100362.03;4990011;28;96888;-71
2022/02/18 07:37:49;;;;;;;16.40;3.40;;;;;;;10.27;50.00;100353.84;4991911;28;97270;-69
2022/02/18 07:40:16;;;;;;;15.80;4.13;;;;;;;10.39;49.63;100340.16;4989359;28;101668;-70
2022/02/18 07:42:43;;;;;;;15.57;3.70;;;;;;;10.19;50.13;100334.81;4988278;28;98838;-70
2022/02/18 07:45:13;;;;;;;18.42;3.90;;;;;;;10.19;50.27;100342.75;4987661;28;96983;-69
2022/02/18 07:47:40;;;;;;;18.85;4.13;;;;;;;10.42;50.02;100345.31;4991787;28;97557;-70
2022/02/18 07:50:08;;;;;;;18.23;3.85;;;;;;;10.77;49.12;100347.34;4990004;28;99245;-70
2022/02/18 07:52:36;;;;;;;14.80;4.20;;;;;;;10.86;48.88;100342.59;4993950;28;97750;-69
2022/02/18 07:55:04;;;;;;;12.02;3.40;;;;;;;10.61;49.20;100345.41;4991417;28;98135;-70
2022/02/18 07:57:32;;;;;;;13.48;3.40;;;;;;;10.88;48.82;100346.03;4991351;28;97185;-70
2022/02/18 08:00:06;;;;;;;13.15;3.65;;;;;;;10.89;48.42;100343.34;4992524;28;97904;-73
2022/02/18 08:02:32;;;;;;;17.02;4.10;;;;;;;11.07;48.34;100337.22;4998419;28;99081;-69
2022/02/18 08:07:33;;;;;;;18.58;4.65;;;;;;;10.97;48.93;100340.31;5010629;28;98847;-71
2022/02/18 08:09:59;;;;;;;11.73;3.15;;;;;;;10.98;48.45;100336.75;5001641;28;99339;-72
2022/02/18 08:12:26;;;;;;;17.98;4.00;;;;;;;11.40;47.53;100334.00;5009062;28;98866;-73
2022/02/18 08:14:52;;;;;;;18.65;3.92;;;;;;;11.28;47.83;100342.50;5012856;28;97195;-72
2022/02/18 08:17:18;;;;;;;16.75;4.13;;;;;;;11.30;47.75;100336.19;4992318;28;97711;-71
2022/02/18 08:19:45;;;;;;;16.35;3.88;;;;;;;11.51;47.25;100327.28;4993079;28;99101;-73
2022/02/18 08:22:17;;;;;;;19.27;3.90;;;;;;;11.36;47.35;100335.06;4991686;28;97615;-74
2022/02/18 08:24:47;;;;;;;23.75;3.67;;;;;;;11.28;47.83;100324.00;5002397;28;96838;-72
2022/02/18 08:27:13;;;;;;;13.80;3.67;;;;;;;11.07;47.88;100325.78;5005636;28;96694;-73
2022/02/18 08:32:54;;;;;;;15.27;3.30;;;;;;;11.46;47.39;100323.16;5010595;28;97756;-73
2022/02/18 08:35:21;;;;;;;16.95;3.78;;;;;;;11.58;47.20;100322.56;5007449;28;97138;-73
2022/02/18 08:37:47;;;;;;;23.50;4.45;;;;;;;11.68;47.07;100320.38;5003721;28;97276;-72
2022/02/18 08:40:15;;;;;;;13.55;3.25;;;;;;;11.22;48.07;100311.03;5001086;28;99212;-72
2022/02/18 08:42:41;;;;;;;18.20;3.92;;;;;;;11.50;47.25;100309.69;4996661;28;99134;-71
2022/02/18 08:45:08;;;;;;;16.75;4.00;;;;;;;11.54;47.14;100315.72;5006799;28;97370;-72
2022/02/18 08:47:35;;;;;;;14.95;3.63;;;;;;;11.64;47.00;100303.78;5013046;28;97749;-72
2022/02/18 08:50:01;;;;;;;18.55;3.60;;;;;;;11.74;46.64;100306.88;5021334;28;97960;-73
2022/02/18 08:52:27;;;;;;;13.73;3.40;;;;;;;11.91;46.24;100306.94;5014899;28;97750;-72
2022/02/18 08:54:54;;;;;;;15.95;3.25;;;;;;;12.05;46.05;100288.59;5022418;28;96711;-73
2022/02/18 08:57:21;;;;;;;16.45;3.28;;;;;;;12.32;45.50;100281.94;5016882;28;97901;-73
2022/02/18 08:59:48;;;;;;;14.77;3.08;;;;;;;12.40;45.12;100273.63;5015623;28;98261;-73
2022/02/18 09:02:14;;;;;;;18.95;3.67;;;;;;;11.98;45.62;100266.84;5004673;28;98962;-72
2022/02/18 09:04:44;;;;;;;16.48;3.38;;;;;;;12.15;45.69;100266.00;4999645;28;97265;-73
2022/02/18 09:07:10;;;;;;;13.88;3.03;;;;;;;11.89;46.17;100269.06;5007132;28;97312;-75
2022/02/18 09:09:36;;;;;;;16.73;2.95;;;;;;;12.29;45.44;100268.84;5004941;28;99276;-71
2022/02/18 09:12:03;;;;;;;26.70;4.47;;;;;;;12.24;45.25;100260.28;5003908;28;99385;-74
2022/02/18 09:14:31;;;;;;;18.83;3.75;;;;;;;11.88;46.08;100259.44;5009045;28;96792;-74
2022/02/18 09:16:57;;;;;;;18.08;3.10;;;;;;;11.96;45.69;100254.63;5012973;28;97466;-75
2022/02/18 09:19:23;;;;;;;20.35;4.45;;;;;;;12.22;45.57;100262.13;5019624;28;98309;-74
2022/02/18 09:21:50;;;;;;;18.00;3.67;;;;;;;12.12;45.49;100252.94;5004789;28;101556;-72
2022/02/18 09:24:16;;;;;;;17.02;3.63;;;;;;;12.43;45.01;100246.09;5001443;28;97428;-73
2022/02/18 09:26:43;;;;;;;14.27;3.67;;;;;;;12.34;44.58;100236.81;4999429;28;97714;-78
2022/02/18 09:29:10;;;;;;;15.82;3.58;;;;;;;12.37;44.89;100226.94;5005060;28;99097;-74
2022/02/18 09:31:38;;;;;;;17.20;3.42;;;;;;;12.64;44.26;100224.66;5011561;28;99376;-74
2022/02/18 09:34:04;;;;;;;10.95;2.85;;;;;;;12.36;44.59;100217.25;5004857;28;96822;-75
2022/02/18 09:36:31;;;;;;;14.30;3.83;;;;;;;12.46;44.84;100214.16;5010308;28;97174;-73
2022/02/18 09:38:57;;;;;;;13.45;3.50;;;;;;;11.79;45.79;100214.88;4999783;28;99928;-74
2022/02/18 09:41:24;;;;;;;14.05;3.20;;;;;;;12.49;44.61;100203.38;4997894;28;98623;-73
2022/02/18 09:43:52;;;;;;;15.15;3.45;;;;;;;12.59;44.43;100196.69;5000366;28;98991;-73
2022/02/18 09:46:20;;;;;;;14.43;3.58;;;;;;;12.63;44.21;100203.53;4997395;28;97503;-73
2022/02/18 09:48:48;;;;;;;13.05;2.80;;;;;;;12.64;44.15;100199.94;5000558;28;99153;-73
2022/02/18 09:51:16;;;;;;;12.95;3.00;;;;;;;12.48;44.27;100196.34;4994859;28;99275;-72
2022/02/18 09:53:43;;;;;;;10.00;2.42;;;;;;;12.49;44.18;100195.44;5001288;28;96803;-74
2022/02/18 09:56:11;;;;;;;12.02;2.75;;;;;;;12.47;44.31;100197.31;5002941;28;98633;-74
2022/02/18 09:58:38;;;;;;;10.68;2.97;;;;;;;12.25;44.71;100184.31;4998201;28;99093;-72
2022/02/18 10:01:05;;;;;;;10.05;2.75;;;;;;;12.59;44.04;100168.38;4999436;28;98952;-72
2022/02/18 10:03:32;;;;;;;13.68;2.70;;;;;;;12.61;43.89;100174.44;4997720;28;97026;-72
2022/02/18 10:06:00;;;;;;;17.35;3.17;;;;;;;13.03;43.28;100168.63;4997942;28;96807;-75
2022/02/18 10:08:28;;;;;;;13.85;2.63;;;;;;;12.43;44.57;100162.16;4998083;28;98967;-73
2022/02/18 10:11:01;;;;;;;17.35;2.78;;;;;;;12.61;43.94;100157.66;4996919;28;99165;-74
2022/02/18 10:13:30;;;;;;;11.55;2.70;;;;;;;11.97;45.37;100148.63;5001870;28;96736;-73
2022/02/18 10:15:57;;;;;;;15.25;2.65;;;;;;;12.49;44.70;100142.44;4998823;28;98531;-73
2022/02/18 10:18:24;;;;;;;12.68;2.30;;;;;;;12.83;43.78;100131.75;4996844;28;98009;-76
2022/02/18 10:20:51;;;;;;;13.63;2.55;;;;;;;12.63;44.45;100131.94;5001366;28;99012;-72
2022/02/18 10:23:18;;;;;;;9.30;1.90;;;;;;;12.79;44.08;100127.56;5000599;28;96800;-71
2022/02/18 10:25:48;;;;;;;8.55;1.90;;;;;;;12.57;44.10;100122.53;4994786;28;97749;-73
2022/02/18 10:28:17;;;;;;;10.90;2.00;;;;;;;12.72;44.19;100118.22;5008785;28;100221;-72
2022/02/18 10:30:44;;;;;;;8.85;2.80;;;;;;;12.92;43.69;100109.19;5015826;28;99452;-72
2022/02/18 10:33:13;;;;;;;10.43;2.08;;;;;;;13.01;43.52;100101.56;5002407;28;97244;-73
2022/02/18 10:35:40;;;;;;;15.57;2.67;;;;;;;13.25;43.18;100094.06;5006785;28;97308;-73
2022/02/18 10:38:07;;;;;;;12.43;1.92;;;;;;;12.94;43.68;100089.56;4995123;28;98026;-73
2022/02/18 10:40:42;;;;;;;12.05;2.17;;;;;;;12.53;44.74;100086.56;5009091;28;99111;-74
2022/02/18 10:43:11;;;;;;;13.95;3.63;;;;;;;12.59;44.71;100078.28;5003990;28;98498;-73
2022/02/18 10:45:51;;;;;;;11.13;2.42;;;;;;;12.27;45.39;100071.19;5001713;28;97174;-74
2022/02/18 10:48:19;;;;;;;11.15;2.28;;;;;;;12.48;45.26;100067.38;5006435;28;98227;-73
2022/02/18 10:51:05;;;;;;;12.80;2.42;;;;;;;12.23;45.21;100053.72;4996504;28;99231;-75
2022/02/18 10:53:36;;;;;;;11.00;2.72;;;;;;;12.65;44.67;100047.91;4997324;28;97021;-78
2022/02/18 10:56:05;;;;;;;9.23;2.40;;;;;;;12.80;44.51;100041.75;4999614;28;96812;-74
2022/02/18 10:58:34;;;;;;;8.25;1.90;;;;;;;12.84;44.10;100035.34;5002516;28;98043;-74
2022/02/18 11:01:02;;;;;;;11.93;2.35;;;;;;;12.85;44.12;100037.06;4999610;28;99211;-75
2022/02/18 11:03:29;;;;;;;10.75;2.92;;;;;;;12.86;44.39;100030.84;5000479;28;96787;-74
2022/02/18 11:05:55;;;;;;;12.07;2.60;;;;;;;12.89;44.32;100032.44;4998874;28;97375;-75
2022/02/18 11:08:28;;;;;;;12.15;2.35;;;;;;;12.66;44.69;100028.44;4999882;28;99058;-76
2022/02/18 11:10:55;;;;;;;14.73;2.00;;;;;;;12.90;44.19;100011.16;4999638;28;99199;-72
2022/02/18 11:13:24;;;;;;;11.98;2.20;;;;;;;12.48;44.50;100009.06;4998893;28;97997;-73
2022/02/18 11:15:51;;;;;;;10.05;2.33;;;;;;;12.48;44.79;100010.88;5001348;28;96952;-73
2022/02/18 11:18:18;;;;;;;10.65;1.40;;;;;;;11.71;44.53;100013.22;4996421;28;99006;-75
2022/02/18 11:20:45;;;;;;;8.00;1.63;;;;;;;11.70;45.42;100004.41;4996378;28;98978;-74
2022/02/18 11:23:12;;;;;;;6.57;1.30;;;;;;;11.65;45.99;100010.88;4990922;28;98633;-73
2022/02/18 11:25:39;;;;;;;6.65;1.40;;;;;;;11.72;46.94;100002.56;4996021;28;97023;-73
2022/02/18 11:28:07;;;;;;;9.07;1.30;;;;;;;11.58;48.05;99992.69;4991096;28;98889;-72
2022/02/18 11:30:39;;;;;;;9.55;1.63;;;;;;;11.80;48.06;99983.66;4992117;28;99447;-72